• Join FlightAware (Why Join?)
  • Login
  • US Flag 
05:43PM EDT


 

Airport Tracker/Info


-or-


 

Live Flight TrackerFlight Track Log ✈ SKW6423 ✈ 09-May-2013 ✈ KCID - KDEN

Flight Track Log - Related Links

Times and Time Zones

All times are in EDT time to prevent confusion due to time zone crossing. See the SKW6423 flight status page for this flight to view local times or setup timezone preferences in your user account.

Time Position Orientation Groundspeed Altitude Reporting Facility
EDT Latitude Longitude Course Direction KTS MPH feet Rate Location/Type
10:07PM 41.8753 -91.8578 265° West 214 246 4,200  Level Minneapolis Center
10:08PM 41.8686 -91.9531 265° West 235 270 7,000 2,700 Climbing Minneapolis Center
10:09PM 41.8456 -92.0616 265° West  Level FlightAware Approximate
10:09PM 41.8592 -92.0756 264° West 273 314 10,100  Level Chicago Center
10:10PM 41.8391 -92.1529 265° West  Level FlightAware Approximate
10:10PM 41.8503 -92.1822 264° West 290 334 11,900  Level Chicago Center
10:11PM 41.8288 -92.2976 265° West  Level FlightAware Approximate
10:11PM 41.8414 -92.2992 264° West 314 361 13,700  Level Chicago Center
10:12PM 41.8184 -92.4423 265° West  Level FlightAware Approximate
10:12PM 41.8317 -92.4183 264° West 322 371 15,500  Level Chicago Center
10:13PM 41.8211 -92.5389 263° West 324 373 17,200 1,680 Climbing Chicago Center
10:14PM 41.8086 -92.6925 264° West 341 392 19,100 1,380 Climbing Minneapolis Center
10:15PM 41.7983 -92.8244 264° West 348 400 20,200 900 Climbing Minneapolis Center
10:16PM 41.7867 -92.9603 263° West 363 418 21,000 900 Climbing Minneapolis Center
10:17PM 41.7736 -93.1019 263° West 380 437 22,100 1,200 Climbing Minneapolis Center
10:18PM 41.7608 -93.2417 263° West 382 440 23,500 1,020 Climbing Minneapolis Center
10:19PM 41.7461 -93.4117 263° West 384 442 24,200 720 Climbing Minneapolis Center
10:20PM 41.7331 -93.5572 263° West 391 450 25,000 840 Climbing Minneapolis Center
10:21PM 41.7242 -93.7050 265° West 400 460 26,000 840 Climbing Minneapolis Center
10:22PM 41.7169 -93.8544 266° West 404 465 27,000 1,020 Climbing Minneapolis Center
10:23PM 41.7053 -94.0533 266° West 400 460 28,300 840 Climbing Minneapolis Center
10:24PM 41.6969 -94.2011 266° West 399 459 28,800 480 Climbing Minneapolis Center
10:25PM 41.6878 -94.3517 265° West 403 464 29,300 480 Climbing Minneapolis Center
10:26PM 41.6789 -94.5047 266° West 409 471 29,800 480 Climbing Minneapolis Center
10:28PM 41.6672 -94.6581 264° West 412 474 30,400 720 Climbing Minneapolis Center
10:29PM 41.6589 -94.8078 266° West 408 470 31,300 780 Climbing Minneapolis Center
10:30PM 41.6500 -94.9550 265° West 403 464 32,000 300 Climbing Minneapolis Center
10:31PM 41.6378 -95.1336 265° West 403 464 32,000  Level Minneapolis Center
10:32PM 41.6272 -95.2878 265° West 416 479 32,000  Level Minneapolis Center
10:33PM 41.6175 -95.4400 265° West 413 475 32,000  Level Minneapolis Center
10:34PM 41.6067 -95.5883 264° West 406 467 32,000  Level Minneapolis Center
10:35PM 41.5947 -95.7550 265° West 408 470 32,000  Level Minneapolis Center
10:36PM 41.5839 -95.9044 265° West 404 465 32,000  Level Minneapolis Center
10:37PM 41.5717 -96.0572 264° West 411 473 32,000  Level Minneapolis Center
10:38PM 41.5639 -96.1775 265° West 407 468 32,000  Level Minneapolis Center
10:39PM 41.5483 -96.3650 264° West 411 473 32,000  Level Minneapolis Center
10:40PM 41.5367 -96.5164 264° West 413 475 32,000  Level Minneapolis Center
10:41PM 41.5239 -96.6683 264° West 414 476 32,000  Level Minneapolis Center
10:42PM 41.5114 -96.8203 264° West 414 476 32,000  Level Minneapolis Center
10:43PM 41.4997 -96.9733 264° West 415 478 32,000  Level Minneapolis Center
10:44PM 41.4844 -97.1569 264° West 416 479 32,000  Level Minneapolis Center
10:45PM 41.4717 -97.3103 264° West 417 480 32,000  Level Minneapolis Center
10:46PM 41.4583 -97.4639 263° West 418 481 32,000  Level Minneapolis Center
10:47PM 41.4444 -97.6181 263° West 420 483 32,000  Level Minneapolis Center
10:48PM 41.4322 -97.7419 263° West 421 484 32,000  Level Minneapolis Center
10:49PM 41.4156 -97.9261 263° West 420 483 32,000  Level Minneapolis Center
10:50PM 41.4011 -98.0794 263° West 419 482 32,000  Level Minneapolis Center
10:51PM 41.3869 -98.2319 263° West 419 482 32,000  Level Minneapolis Center
10:52PM 41.3611 -98.4139 259° West 422 486 32,000  Level Minneapolis Center
10:53PM 41.3239 -98.5644 252° West 422 486 32,000  Level Minneapolis Center
10:54PM 41.2806 -98.7411 252° West 421 484 32,000  Level Minneapolis Center
10:55PM 41.2450 -98.8897 252° West 422 486 32,000  Level Minneapolis Center
10:57PM 41.2078 -99.0367 251° West 422 486 32,000  Level Minneapolis Center
10:58PM 41.1592 -99.2292 252° West 418 481 32,000  Level Minneapolis Center
10:59PM 41.1225 -99.3758 252° West 420 483 32,000  Level Minneapolis Center
11:00PM 41.0856 -99.5222 252° West 419 482 32,000  Level Minneapolis Center
11:01PM 41.0478 -99.6678 251° West 419 482 32,000  Level Minneapolis Center
11:02PM 41.0047 -99.8314 251° West 419 482 32,000  Level Denver Center
11:03PM 40.9750 -99.9728 254° West 417 480 32,000  Level Denver Center
11:04PM 40.9575 -100.1186 261° West 419 482 32,000  Level Denver Center
11:05PM 40.9339 -100.2878 260° West 419 482 32,000  Level Denver Center
11:06PM 40.9139 -100.4328 260° West 419 482 32,000  Level Denver Center
11:07PM 40.8908 -100.6014 260° West 419 482 32,000  Level Denver Center
11:08PM 40.8683 -100.7497 259° West 419 482 32,000  Level Denver Center
11:09PM 40.8469 -100.9072 260° West 423 487 32,000  Level Denver Center
11:10PM 40.8258 -101.0500 259° West 417 480 32,000  Level Denver Center
11:11PM 40.8011 -101.2197 259° West 422 486 32,000  Level Denver Center
11:12PM 40.7800 -101.3631 259° West 418 481 32,000  Level Denver Center
11:13PM 40.7550 -101.5319 259° West 420 483 32,000  Level Denver Center
11:14PM 40.7336 -101.6756 259° West 418 481 32,000  Level Denver Center
11:15PM 40.7111 -101.8214 259° West 422 486 32,000  Level Denver Center
11:16PM 40.6847 -101.9886 258° West 419 482 32,000  Level Denver Center
11:17PM 40.6628 -102.1339 259° West 423 487 32,000  Level Denver Center
11:18PM 40.6378 -102.3006 259° West 417 480 32,000  Level Denver Center
11:19PM 40.6136 -102.4458 258° West 424 488 32,000  Level Denver Center
11:20PM 40.5872 -102.6144 258° West 422 486 32,000  Level Denver Center
11:21PM 40.5636 -102.7592 258° West 423 487 32,000  Level Denver Center
11:22PM 40.5403 -102.9039 258° West 424 488 32,000 -180 Level Denver Center
11:23PM 40.5133 -103.0747 258° West 428 493 31,700 -1,380 Descending Denver Center
11:24PM 40.4892 -103.2186 258° West 425 489 29,200 -2,640 Descending Denver Center
11:25PM 40.4625 -103.3775 258° West 415 478 26,400 -2,700 Descending Denver Center
11:26PM 40.4392 -103.5167 258° West 408 470 23,700 -2,820 Descending Denver Center
11:27PM 40.4131 -103.6761 258° West 400 460 20,600 -2,880 Descending Denver Center
11:28PM 40.3894 -103.8172 258° West 395 455 17,900 -1,740 Descending Denver Center
11:29PM 40.3689 -103.9456 258° West 361 415 17,100 -780 Descending Denver Center
11:30PM 40.3561 -104.0597 262° West 321 369 16,400 -1,080 Descending Denver Center
11:32PM 40.3556 -104.1792 270° West 305 351 14,900 -1,140 Descending Denver Center
11:33PM 40.3542 -104.2811 269° West 285 328 14,100 -900 Descending Denver Center
11:34PM 40.3306 -104.3686 251° West 259 298 13,100 -1,320 Descending Denver Center
11:35PM 40.3033 -104.4644 250° West 261 300 11,400 -1,440 Descending Denver Center
11:36PM 40.2667 -104.5408 238° Southwest 251 289 10,200 -1,020 Descending Denver Center
11:37PM 40.2228 -104.6072 229° Southwest 243 280 9,400 -600 Descending Denver Center
11:38PM 40.1592 -104.6511 208° Southwest 240 276 9,100 -180 Descending Denver Center
11:39PM 40.0981 -104.6839 202° Southwest 242 278 9,100 -540 Level Denver Center
11:40PM 40.0342 -104.6856 181° South 231 266 8,000 -1,080 Descending Denver Center
11:41PM 39.9792 -104.6858 180° South 202 232 7,000 -480 Descending Denver Center
11:42PM 39.9228 -104.6858 180° South 188 216 7,100 180 Climbing Denver Center
11:43PM 39.8756 -104.7206 209° Southwest 230 265 7,400 900 Climbing Denver Center
11:44PM 39.9181 -104.7925 308° West 246 283 9,000 780 Climbing Denver Center
11:45PM 39.9775 -104.7972 357° North 217 250 9,000  Level Denver Center
11:46PM 40.0308 -104.7961 North 196 226 9,100 -60 Climbing Denver Center
11:47PM 40.0758 -104.7753 20° North 195 224 8,900 -480 Descending Denver Center
11:48PM 40.0597 -104.7047 107° East 193 222 8,200 -720 Descending Denver Center